sensor_id;sensor_type;location;lat;lon;timestamp;P1;durP1;ratioP1;P2;durP2;ratioP2
37485;SDS011;23341;50.296;18.960;2023-03-04T00:01:56;53.05;;;22.25;;
37485;SDS011;23341;50.296;18.960;2023-03-04T00:07:02;62.15;;;26.83;;
37485;SDS011;23341;50.296;18.960;2023-03-04T00:12:06;72.70;;;29.05;;
37485;SDS011;23341;50.296;18.960;2023-03-04T00:17:10;72.43;;;33.42;;
37485;SDS011;23341;50.296;18.960;2023-03-04T00:22:16;68.60;;;29.73;;
37485;SDS011;23341;50.296;18.960;2023-03-04T00:27:20;69.35;;;32.38;;
37485;SDS011;23341;50.296;18.960;2023-03-04T00:32:24;73.53;;;31.38;;
37485;SDS011;23341;50.296;18.960;2023-03-04T00:37:30;70.10;;;32.30;;
37485;SDS011;23341;50.296;18.960;2023-03-04T00:42:34;69.55;;;30.25;;
37485;SDS011;23341;50.296;18.960;2023-03-04T00:47:38;83.85;;;37.08;;
37485;SDS011;23341;50.296;18.960;2023-03-04T00:52:45;81.38;;;35.25;;
37485;SDS011;23341;50.296;18.960;2023-03-04T00:57:50;69.13;;;31.15;;
37485;SDS011;23341;50.296;18.960;2023-03-04T01:02:54;66.20;;;30.58;;
37485;SDS011;23341;50.296;18.960;2023-03-04T01:08:00;88.05;;;37.95;;
37485;SDS011;23341;50.296;18.960;2023-03-04T01:13:04;73.15;;;32.97;;
37485;SDS011;23341;50.296;18.960;2023-03-04T01:18:08;83.78;;;36.92;;
37485;SDS011;23341;50.296;18.960;2023-03-04T01:23:15;64.85;;;28.25;;
37485;SDS011;23341;50.296;18.960;2023-03-04T01:28:19;72.80;;;31.67;;
37485;SDS011;23341;50.296;18.960;2023-03-04T01:33:24;86.80;;;36.33;;
37485;SDS011;23341;50.296;18.960;2023-03-04T01:38:30;61.70;;;27.88;;
37485;SDS011;23341;50.296;18.960;2023-03-04T01:43:35;73.75;;;31.23;;
37485;SDS011;23341;50.296;18.960;2023-03-04T01:48:40;72.30;;;32.78;;
37485;SDS011;23341;50.296;18.960;2023-03-04T01:53:47;78.22;;;33.30;;
37485;SDS011;23341;50.296;18.960;2023-03-04T01:59:07;85.75;;;34.75;;
37485;SDS011;23341;50.296;18.960;2023-03-04T02:04:14;93.28;;;37.38;;
37485;SDS011;23341;50.296;18.960;2023-03-04T02:09:22;82.25;;;35.47;;
37485;SDS011;23341;50.296;18.960;2023-03-04T02:14:27;81.13;;;35.38;;
37485;SDS011;23341;50.296;18.960;2023-03-04T02:19:36;78.32;;;32.30;;
37485;SDS011;23341;50.296;18.960;2023-03-04T02:24:53;86.80;;;36.35;;
37485;SDS011;23341;50.296;18.960;2023-03-04T02:30:05;76.80;;;34.38;;
37485;SDS011;23341;50.296;18.960;2023-03-04T02:35:12;85.75;;;35.67;;
37485;SDS011;23341;50.296;18.960;2023-03-04T02:40:20;86.38;;;35.42;;
37485;SDS011;23341;50.296;18.960;2023-03-04T02:45:39;93.18;;;36.45;;
37485;SDS011;23341;50.296;18.960;2023-03-04T02:50:46;85.63;;;37.30;;
37485;SDS011;23341;50.296;18.960;2023-03-04T02:55:53;93.63;;;40.42;;
37485;SDS011;23341;50.296;18.960;2023-03-04T03:01:00;98.13;;;39.08;;
37485;SDS011;23341;50.296;18.960;2023-03-04T03:06:04;98.20;;;41.15;;
37485;SDS011;23341;50.296;18.960;2023-03-04T03:11:09;105.80;;;38.47;;
37485;SDS011;23341;50.296;18.960;2023-03-04T03:16:15;95.57;;;40.22;;
37485;SDS011;23341;50.296;18.960;2023-03-04T03:21:20;123.30;;;48.60;;
37485;SDS011;23341;50.296;18.960;2023-03-04T03:26:24;105.38;;;38.97;;
37485;SDS011;23341;50.296;18.960;2023-03-04T03:31:30;120.38;;;43.88;;
37485;SDS011;23341;50.296;18.960;2023-03-04T03:36:35;116.90;;;46.17;;
37485;SDS011;23341;50.296;18.960;2023-03-04T03:41:39;100.70;;;42.28;;
37485;SDS011;23341;50.296;18.960;2023-03-04T03:46:45;106.03;;;43.85;;
37485;SDS011;23341;50.296;18.960;2023-03-04T03:51:50;109.03;;;39.80;;
37485;SDS011;23341;50.296;18.960;2023-03-04T03:56:54;90.75;;;35.28;;
37485;SDS011;23341;50.296;18.960;2023-03-04T04:02:00;110.50;;;40.83;;
37485;SDS011;23341;50.296;18.960;2023-03-04T04:07:04;100.88;;;38.97;;
37485;SDS011;23341;50.296;18.960;2023-03-04T04:12:08;108.38;;;46.03;;
37485;SDS011;23341;50.296;18.960;2023-03-04T04:17:17;100.55;;;38.10;;
37485;SDS011;23341;50.296;18.960;2023-03-04T04:22:22;97.88;;;38.88;;
37485;SDS011;23341;50.296;18.960;2023-03-04T04:27:26;88.10;;;35.78;;
37485;SDS011;23341;50.296;18.960;2023-03-04T04:32:32;101.82;;;42.17;;
37485;SDS011;23341;50.296;18.960;2023-03-04T04:37:37;88.93;;;31.08;;
37485;SDS011;23341;50.296;18.960;2023-03-04T04:42:41;103.88;;;37.58;;
37485;SDS011;23341;50.296;18.960;2023-03-04T04:47:46;110.78;;;36.35;;
37485;SDS011;23341;50.296;18.960;2023-03-04T04:52:51;98.20;;;34.03;;
37485;SDS011;23341;50.296;18.960;2023-03-04T04:57:56;108.30;;;35.70;;
37485;SDS011;23341;50.296;18.960;2023-03-04T05:03:01;98.47;;;37.63;;
37485;SDS011;23341;50.296;18.960;2023-03-04T05:08:06;99.28;;;35.30;;
37485;SDS011;23341;50.296;18.960;2023-03-04T05:13:10;100.10;;;37.08;;
37485;SDS011;23341;50.296;18.960;2023-03-04T05:18:16;96.72;;;35.83;;
37485;SDS011;23341;50.296;18.960;2023-03-04T05:23:20;106.55;;;40.95;;
37485;SDS011;23341;50.296;18.960;2023-03-04T05:28:26;102.30;;;37.25;;
37485;SDS011;23341;50.296;18.960;2023-03-04T05:33:31;101.15;;;37.90;;
37485;SDS011;23341;50.296;18.960;2023-03-04T05:38:36;86.18;;;34.00;;
37485;SDS011;23341;50.296;18.960;2023-03-04T05:43:41;70.55;;;28.00;;
37485;SDS011;23341;50.296;18.960;2023-03-04T05:48:47;87.88;;;31.30;;
37485;SDS011;23341;50.296;18.960;2023-03-04T05:53:51;98.07;;;33.78;;
37485;SDS011;23341;50.296;18.960;2023-03-04T05:58:56;84.07;;;36.47;;
37485;SDS011;23341;50.296;18.960;2023-03-04T06:04:02;58.95;;;24.90;;
37485;SDS011;23341;50.296;18.960;2023-03-04T06:09:07;61.42;;;25.92;;
37485;SDS011;23341;50.296;18.960;2023-03-04T06:14:11;71.40;;;28.20;;
37485;SDS011;23341;50.296;18.960;2023-03-04T06:19:17;76.50;;;32.63;;
37485;SDS011;23341;50.296;18.960;2023-03-04T06:24:22;62.47;;;27.38;;
37485;SDS011;23341;50.296;18.960;2023-03-04T06:29:26;61.67;;;28.40;;
37485;SDS011;23341;50.296;18.960;2023-03-04T06:34:33;49.17;;;24.35;;
37485;SDS011;23341;50.296;18.960;2023-03-04T06:39:37;57.67;;;25.27;;
37485;SDS011;23341;50.296;18.960;2023-03-04T06:44:42;50.83;;;23.52;;
37485;SDS011;23341;50.296;18.960;2023-03-04T06:49:48;45.50;;;21.40;;
37485;SDS011;23341;50.296;18.960;2023-03-04T06:54:52;52.38;;;23.80;;
37485;SDS011;23341;50.296;18.960;2023-03-04T06:59:57;45.33;;;20.50;;
37485;SDS011;23341;50.296;18.960;2023-03-04T07:05:02;32.25;;;17.40;;
37485;SDS011;23341;50.296;18.960;2023-03-04T07:10:08;48.72;;;23.08;;
37485;SDS011;23341;50.296;18.960;2023-03-04T07:15:13;41.78;;;21.95;;
37485;SDS011;23341;50.296;18.960;2023-03-04T07:20:19;46.30;;;24.05;;
37485;SDS011;23341;50.296;18.960;2023-03-04T07:25:23;49.80;;;24.80;;
37485;SDS011;23341;50.296;18.960;2023-03-04T07:30:27;47.03;;;22.63;;
37485;SDS011;23341;50.296;18.960;2023-03-04T07:35:35;46.78;;;23.25;;
37485;SDS011;23341;50.296;18.960;2023-03-04T07:40:39;59.45;;;28.65;;
37485;SDS011;23341;50.296;18.960;2023-03-04T07:45:44;60.92;;;28.65;;
37485;SDS011;23341;50.296;18.960;2023-03-04T07:50:49;52.92;;;23.80;;
37485;SDS011;23341;50.296;18.960;2023-03-04T07:56:05;39.03;;;18.95;;
37485;SDS011;23341;50.296;18.960;2023-03-04T08:01:10;46.58;;;18.83;;
37485;SDS011;23341;50.296;18.960;2023-03-04T08:06:17;114.35;;;39.28;;
37485;SDS011;23341;50.296;18.960;2023-03-04T08:11:23;206.40;;;54.65;;
37485;SDS011;23341;50.296;18.960;2023-03-04T08:16:27;322.92;;;80.90;;
37485;SDS011;23341;50.296;18.960;2023-03-04T08:21:33;102.68;;;34.53;;
37485;SDS011;23341;50.296;18.960;2023-03-04T08:26:39;233.77;;;59.53;;
37485;SDS011;23341;50.296;18.960;2023-03-04T08:31:45;56.42;;;23.30;;
37485;SDS011;23341;50.296;18.960;2023-03-04T08:36:52;50.28;;;21.30;;
37485;SDS011;23341;50.296;18.960;2023-03-04T08:41:56;193.82;;;56.33;;
37485;SDS011;23341;50.296;18.960;2023-03-04T08:47:01;71.85;;;27.17;;
37485;SDS011;23341;50.296;18.960;2023-03-04T08:52:06;129.57;;;46.10;;
37485;SDS011;23341;50.296;18.960;2023-03-04T08:57:11;53.72;;;24.63;;
37485;SDS011;23341;50.296;18.960;2023-03-04T09:02:16;59.58;;;28.15;;
37485;SDS011;23341;50.296;18.960;2023-03-04T09:07:21;49.55;;;26.00;;
37485;SDS011;23341;50.296;18.960;2023-03-04T09:12:26;57.42;;;26.77;;
37485;SDS011;23341;50.296;18.960;2023-03-04T09:17:31;47.58;;;22.42;;
37485;SDS011;23341;50.296;18.960;2023-03-04T09:22:36;52.03;;;25.17;;
37485;SDS011;23341;50.296;18.960;2023-03-04T09:27:41;50.42;;;24.27;;
37485;SDS011;23341;50.296;18.960;2023-03-04T09:32:46;71.15;;;31.48;;
37485;SDS011;23341;50.296;18.960;2023-03-04T09:37:52;67.35;;;28.10;;
37485;SDS011;23341;50.296;18.960;2023-03-04T09:42:56;56.28;;;27.52;;
37485;SDS011;23341;50.296;18.960;2023-03-04T09:48:05;80.38;;;34.38;;
37485;SDS011;23341;50.296;18.960;2023-03-04T09:53:17;57.53;;;29.02;;
37485;SDS011;23341;50.296;18.960;2023-03-04T09:58:27;63.60;;;30.77;;
37485;SDS011;23341;50.296;18.960;2023-03-04T10:03:42;54.60;;;27.05;;
37485;SDS011;23341;50.296;18.960;2023-03-04T10:08:53;54.58;;;27.70;;
37485;SDS011;23341;50.296;18.960;2023-03-04T10:14:03;64.43;;;31.15;;
37485;SDS011;23341;50.296;18.960;2023-03-04T10:19:23;59.70;;;30.73;;
37485;SDS011;23341;50.296;18.960;2023-03-04T10:24:35;96.63;;;36.58;;
37485;SDS011;23341;50.296;18.960;2023-03-04T10:29:39;62.10;;;27.30;;
37485;SDS011;23341;50.296;18.960;2023-03-04T10:34:44;64.57;;;30.90;;
37485;SDS011;23341;50.296;18.960;2023-03-04T10:39:50;63.70;;;30.92;;
37485;SDS011;23341;50.296;18.960;2023-03-04T10:44:55;67.13;;;30.38;;
37485;SDS011;23341;50.296;18.960;2023-03-04T10:50:02;69.05;;;37.30;;
37485;SDS011;23341;50.296;18.960;2023-03-04T10:55:14;70.72;;;30.48;;
37485;SDS011;23341;50.296;18.960;2023-03-04T11:00:25;70.53;;;36.75;;
37485;SDS011;23341;50.296;18.960;2023-03-04T11:05:31;50.17;;;25.77;;
37485;SDS011;23341;50.296;18.960;2023-03-04T11:10:39;76.97;;;38.35;;
37485;SDS011;23341;50.296;18.960;2023-03-04T11:15:48;72.03;;;34.33;;
37485;SDS011;23341;50.296;18.960;2023-03-04T11:20:54;79.20;;;39.63;;
37485;SDS011;23341;50.296;18.960;2023-03-04T11:26:02;62.72;;;30.33;;
37485;SDS011;23341;50.296;18.960;2023-03-04T11:31:09;78.78;;;39.58;;
37485;SDS011;23341;50.296;18.960;2023-03-04T11:36:25;70.00;;;32.22;;
37485;SDS011;23341;50.296;18.960;2023-03-04T11:41:38;97.40;;;42.08;;
37485;SDS011;23341;50.296;18.960;2023-03-04T11:46:53;83.97;;;37.30;;
37485;SDS011;23341;50.296;18.960;2023-03-04T11:52:08;87.85;;;37.67;;
37485;SDS011;23341;50.296;18.960;2023-03-04T11:57:26;81.43;;;38.25;;
37485;SDS011;23341;50.296;18.960;2023-03-04T12:02:39;73.60;;;31.98;;
37485;SDS011;23341;50.296;18.960;2023-03-04T12:08:02;84.60;;;35.63;;
37485;SDS011;23341;50.296;18.960;2023-03-04T12:18:58;117.28;;;53.80;;
37485;SDS011;23341;50.296;18.960;2023-03-04T12:29:55;77.40;;;35.00;;
37485;SDS011;23341;50.296;18.960;2023-03-04T12:40:41;78.22;;;38.25;;
37485;SDS011;23341;50.296;18.960;2023-03-04T12:45:57;69.93;;;34.45;;
37485;SDS011;23341;50.296;18.960;2023-03-04T12:51:27;64.90;;;28.58;;
37485;SDS011;23341;50.296;18.960;2023-03-04T12:56:38;53.67;;;24.98;;
37485;SDS011;23341;50.296;18.960;2023-03-04T13:01:46;69.80;;;32.30;;
37485;SDS011;23341;50.296;18.960;2023-03-04T13:07:03;71.18;;;34.90;;
37485;SDS011;23341;50.296;18.960;2023-03-04T13:12:15;77.00;;;34.50;;
37485;SDS011;23341;50.296;18.960;2023-03-04T13:17:37;67.35;;;30.95;;
37485;SDS011;23341;50.296;18.960;2023-03-04T13:22:46;67.07;;;32.63;;
37485;SDS011;23341;50.296;18.960;2023-03-04T13:28:11;74.55;;;35.22;;
37485;SDS011;23341;50.296;18.960;2023-03-04T13:38:57;83.55;;;38.95;;
37485;SDS011;23341;50.296;18.960;2023-03-04T13:44:03;73.50;;;34.00;;
37485;SDS011;23341;50.296;18.960;2023-03-04T13:49:47;58.95;;;33.38;;
37485;SDS011;23341;50.296;18.960;2023-03-04T13:54:51;55.25;;;30.88;;
37485;SDS011;23341;50.296;18.960;2023-03-04T14:00:42;43.33;;;22.63;;
37485;SDS011;23341;50.296;18.960;2023-03-04T14:06:10;70.63;;;32.50;;
37485;SDS011;23341;50.296;18.960;2023-03-04T14:11:23;65.30;;;29.30;;
37485;SDS011;23341;50.296;18.960;2023-03-04T14:16:32;62.85;;;30.25;;
37485;SDS011;23341;50.296;18.960;2023-03-04T14:21:44;41.10;;;20.13;;
37485;SDS011;23341;50.296;18.960;2023-03-04T14:26:49;36.70;;;18.70;;
37485;SDS011;23341;50.296;18.960;2023-03-04T14:37:22;37.42;;;18.85;;
37485;SDS011;23341;50.296;18.960;2023-03-04T14:42:31;31.90;;;15.13;;
37485;SDS011;23341;50.296;18.960;2023-03-04T14:47:43;36.33;;;17.42;;
37485;SDS011;23341;50.296;18.960;2023-03-04T14:53:01;37.72;;;19.35;;
37485;SDS011;23341;50.296;18.960;2023-03-04T14:58:18;48.30;;;25.48;;
37485;SDS011;23341;50.296;18.960;2023-03-04T15:03:24;62.72;;;29.08;;
37485;SDS011;23341;50.296;18.960;2023-03-04T15:08:34;48.72;;;24.90;;
37485;SDS011;23341;50.296;18.960;2023-03-04T15:13:41;60.33;;;24.33;;
37485;SDS011;23341;50.296;18.960;2023-03-04T15:18:54;69.80;;;29.88;;
37485;SDS011;23341;50.296;18.960;2023-03-04T15:24:02;84.75;;;33.50;;
37485;SDS011;23341;50.296;18.960;2023-03-04T15:29:12;91.53;;;42.08;;
37485;SDS011;23341;50.296;18.960;2023-03-04T15:34:18;86.25;;;37.05;;
37485;SDS011;23341;50.296;18.960;2023-03-04T15:39:24;84.47;;;42.20;;
37485;SDS011;23341;50.296;18.960;2023-03-04T15:44:29;65.22;;;31.52;;
37485;SDS011;23341;50.296;18.960;2023-03-04T15:49:33;72.88;;;34.47;;
37485;SDS011;23341;50.296;18.960;2023-03-04T15:54:39;75.68;;;39.55;;
37485;SDS011;23341;50.296;18.960;2023-03-04T15:59:43;91.18;;;40.25;;
37485;SDS011;23341;50.296;18.960;2023-03-04T16:04:47;75.07;;;37.38;;
37485;SDS011;23341;50.296;18.960;2023-03-04T16:09:54;69.18;;;32.50;;
37485;SDS011;23341;50.296;18.960;2023-03-04T16:15:02;62.15;;;32.05;;
37485;SDS011;23341;50.296;18.960;2023-03-04T16:20:10;84.47;;;39.15;;
37485;SDS011;23341;50.296;18.960;2023-03-04T16:25:17;102.72;;;50.65;;
37485;SDS011;23341;50.296;18.960;2023-03-04T16:30:22;100.15;;;45.47;;
37485;SDS011;23341;50.296;18.960;2023-03-04T16:35:28;78.63;;;35.83;;
37485;SDS011;23341;50.296;18.960;2023-03-04T16:40:37;90.05;;;43.22;;
37485;SDS011;23341;50.296;18.960;2023-03-04T16:45:42;94.78;;;44.05;;
37485;SDS011;23341;50.296;18.960;2023-03-04T16:50:47;86.78;;;40.97;;
37485;SDS011;23341;50.296;18.960;2023-03-04T16:55:53;86.90;;;41.13;;
37485;SDS011;23341;50.296;18.960;2023-03-04T17:00:57;93.82;;;46.72;;
37485;SDS011;23341;50.296;18.960;2023-03-04T17:06:04;75.07;;;39.50;;
37485;SDS011;23341;50.296;18.960;2023-03-04T17:11:11;100.63;;;49.28;;
37485;SDS011;23341;50.296;18.960;2023-03-04T17:16:18;120.60;;;49.75;;
37485;SDS011;23341;50.296;18.960;2023-03-04T17:21:23;98.68;;;45.28;;
37485;SDS011;23341;50.296;18.960;2023-03-04T17:26:29;78.65;;;40.00;;
37485;SDS011;23341;50.296;18.960;2023-03-04T17:31:34;97.63;;;44.40;;
37485;SDS011;23341;50.296;18.960;2023-03-04T17:36:39;83.40;;;37.85;;
37485;SDS011;23341;50.296;18.960;2023-03-04T17:41:45;131.07;;;57.20;;
37485;SDS011;23341;50.296;18.960;2023-03-04T17:46:51;92.13;;;40.35;;
37485;SDS011;23341;50.296;18.960;2023-03-04T17:51:56;122.57;;;56.75;;
37485;SDS011;23341;50.296;18.960;2023-03-04T17:57:01;130.30;;;60.35;;
37485;SDS011;23341;50.296;18.960;2023-03-04T18:02:06;88.45;;;40.90;;
37485;SDS011;23341;50.296;18.960;2023-03-04T18:07:14;78.20;;;37.20;;
37485;SDS011;23341;50.296;18.960;2023-03-04T18:12:20;86.65;;;40.67;;
37485;SDS011;23341;50.296;18.960;2023-03-04T18:17:24;86.20;;;40.13;;
37485;SDS011;23341;50.296;18.960;2023-03-04T18:22:29;79.28;;;37.42;;
37485;SDS011;23341;50.296;18.960;2023-03-04T18:27:35;73.57;;;38.00;;
37485;SDS011;23341;50.296;18.960;2023-03-04T18:32:41;96.28;;;46.60;;
37485;SDS011;23341;50.296;18.960;2023-03-04T18:37:54;94.05;;;44.97;;
37485;SDS011;23341;50.296;18.960;2023-03-04T18:42:59;102.32;;;44.67;;
37485;SDS011;23341;50.296;18.960;2023-03-04T18:48:04;104.30;;;44.17;;
37485;SDS011;23341;50.296;18.960;2023-03-04T18:53:09;94.20;;;41.13;;
37485;SDS011;23341;50.296;18.960;2023-03-04T18:58:15;73.85;;;37.88;;
37485;SDS011;23341;50.296;18.960;2023-03-04T19:03:20;106.07;;;44.25;;
37485;SDS011;23341;50.296;18.960;2023-03-04T19:08:24;100.18;;;48.28;;
37485;SDS011;23341;50.296;18.960;2023-03-04T19:13:30;73.10;;;33.95;;
37485;SDS011;23341;50.296;18.960;2023-03-04T19:18:34;107.22;;;54.33;;
37485;SDS011;23341;50.296;18.960;2023-03-04T19:23:39;97.53;;;47.28;;
37485;SDS011;23341;50.296;18.960;2023-03-04T19:28:44;72.25;;;37.95;;
37485;SDS011;23341;50.296;18.960;2023-03-04T19:33:48;92.82;;;44.95;;
37485;SDS011;23341;50.296;18.960;2023-03-04T19:38:53;67.57;;;33.58;;
37485;SDS011;23341;50.296;18.960;2023-03-04T19:43:59;55.33;;;29.70;;
37485;SDS011;23341;50.296;18.960;2023-03-04T19:49:03;53.05;;;26.83;;
37485;SDS011;23341;50.296;18.960;2023-03-04T19:54:08;51.10;;;24.13;;
37485;SDS011;23341;50.296;18.960;2023-03-04T19:59:14;40.10;;;22.05;;
37485;SDS011;23341;50.296;18.960;2023-03-04T20:04:18;43.67;;;22.77;;
37485;SDS011;23341;50.296;18.960;2023-03-04T20:09:23;32.15;;;19.80;;
37485;SDS011;23341;50.296;18.960;2023-03-04T20:14:29;38.88;;;19.60;;
37485;SDS011;23341;50.296;18.960;2023-03-04T20:19:34;27.48;;;14.57;;
37485;SDS011;23341;50.296;18.960;2023-03-04T20:24:39;25.52;;;12.73;;
37485;SDS011;23341;50.296;18.960;2023-03-04T20:29:45;32.47;;;16.95;;
37485;SDS011;23341;50.296;18.960;2023-03-04T20:34:50;44.83;;;20.10;;
37485;SDS011;23341;50.296;18.960;2023-03-04T20:39:58;42.90;;;21.63;;
37485;SDS011;23341;50.296;18.960;2023-03-04T20:45:04;39.45;;;20.23;;
37485;SDS011;23341;50.296;18.960;2023-03-04T20:50:10;38.67;;;16.83;;
37485;SDS011;23341;50.296;18.960;2023-03-04T20:55:14;61.90;;;25.48;;
37485;SDS011;23341;50.296;18.960;2023-03-04T21:00:20;35.90;;;20.77;;
37485;SDS011;23341;50.296;18.960;2023-03-04T21:05:24;41.95;;;21.75;;
37485;SDS011;23341;50.296;18.960;2023-03-04T21:10:28;39.67;;;17.95;;
37485;SDS011;23341;50.296;18.960;2023-03-04T21:15:34;26.35;;;10.07;;
37485;SDS011;23341;50.296;18.960;2023-03-04T21:20:39;12.13;;;6.75;;
37485;SDS011;23341;50.296;18.960;2023-03-04T21:25:43;28.55;;;9.93;;
37485;SDS011;23341;50.296;18.960;2023-03-04T21:30:50;9.80;;;5.75;;
37485;SDS011;23341;50.296;18.960;2023-03-04T21:35:54;7.65;;;4.95;;
37485;SDS011;23341;50.296;18.960;2023-03-04T21:40:59;15.30;;;5.78;;
37485;SDS011;23341;50.296;18.960;2023-03-04T21:46:04;24.65;;;9.95;;
37485;SDS011;23341;50.296;18.960;2023-03-04T21:51:11;41.15;;;16.70;;
37485;SDS011;23341;50.296;18.960;2023-03-04T21:56:16;45.15;;;19.98;;
37485;SDS011;23341;50.296;18.960;2023-03-04T22:01:22;58.13;;;23.08;;
37485;SDS011;23341;50.296;18.960;2023-03-04T22:06:26;39.67;;;15.90;;
37485;SDS011;23341;50.296;18.960;2023-03-04T22:11:30;26.02;;;12.45;;
37485;SDS011;23341;50.296;18.960;2023-03-04T22:16:37;32.10;;;15.45;;
37485;SDS011;23341;50.296;18.960;2023-03-04T22:21:58;42.03;;;17.08;;
37485;SDS011;23341;50.296;18.960;2023-03-04T22:27:03;58.33;;;21.27;;
37485;SDS011;23341;50.296;18.960;2023-03-04T22:32:08;30.10;;;12.95;;
37485;SDS011;23341;50.296;18.960;2023-03-04T22:37:12;34.42;;;14.15;;
37485;SDS011;23341;50.296;18.960;2023-03-04T22:42:17;28.02;;;12.27;;
37485;SDS011;23341;50.296;18.960;2023-03-04T22:47:23;45.70;;;17.10;;
37485;SDS011;23341;50.296;18.960;2023-03-04T22:52:27;50.30;;;18.58;;
37485;SDS011;23341;50.296;18.960;2023-03-04T22:57:32;381.08;;;121.80;;
37485;SDS011;23341;50.296;18.960;2023-03-04T23:02:38;348.38;;;102.72;;
37485;SDS011;23341;50.296;18.960;2023-03-04T23:07:42;89.13;;;28.85;;
37485;SDS011;23341;50.296;18.960;2023-03-04T23:12:46;129.70;;;39.45;;
37485;SDS011;23341;50.296;18.960;2023-03-04T23:17:52;218.68;;;69.22;;
37485;SDS011;23341;50.296;18.960;2023-03-04T23:22:56;278.83;;;94.25;;
37485;SDS011;23341;50.296;18.960;2023-03-04T23:28:00;381.95;;;133.85;;
37485;SDS011;23341;50.296;18.960;2023-03-04T23:33:06;186.70;;;68.90;;
37485;SDS011;23341;50.296;18.960;2023-03-04T23:38:11;100.68;;;37.90;;
37485;SDS011;23341;50.296;18.960;2023-03-04T23:43:15;44.25;;;17.95;;
37485;SDS011;23341;50.296;18.960;2023-03-04T23:48:21;48.83;;;20.30;;
37485;SDS011;23341;50.296;18.960;2023-03-04T23:53:25;34.47;;;17.67;;
37485;SDS011;23341;50.296;18.960;2023-03-04T23:58:29;37.25;;;19.30;;
